sensor_id;sensor_type;location;lat;lon;timestamp;P1;durP1;ratioP1;P2;durP2;ratioP2
21624;SDS011;10974;51.034;3.744;2023-04-24T03:39:14;4.23;;;2.57;;
21624;SDS011;10974;51.034;3.744;2023-04-24T03:41:41;5.13;;;3.50;;
21624;SDS011;10974;51.034;3.744;2023-04-24T03:44:07;5.27;;;3.50;;
21624;SDS011;10974;51.034;3.744;2023-04-24T03:46:33;4.23;;;3.57;;
21624;SDS011;10974;51.034;3.744;2023-04-24T03:48:59;6.90;;;4.10;;
21624;SDS011;10974;51.034;3.744;2023-04-24T03:51:25;6.27;;;3.77;;
21624;SDS011;10974;51.034;3.744;2023-04-24T03:53:53;9.53;;;4.80;;
21624;SDS011;10974;51.034;3.744;2023-04-24T03:56:19;6.60;;;4.40;;
21624;SDS011;10974;51.034;3.744;2023-04-24T03:58:45;8.10;;;5.10;;
21624;SDS011;10974;51.034;3.744;2023-04-24T04:01:11;7.90;;;5.40;;
21624;SDS011;10974;51.034;3.744;2023-04-24T04:03:38;9.00;;;5.67;;
21624;SDS011;10974;51.034;3.744;2023-04-24T04:06:04;8.13;;;5.20;;
21624;SDS011;10974;51.034;3.744;2023-04-24T04:08:31;9.17;;;5.57;;
21624;SDS011;10974;51.034;3.744;2023-04-24T04:10:57;8.10;;;5.20;;
21624;SDS011;10974;51.034;3.744;2023-04-24T04:13:23;8.67;;;5.43;;
21624;SDS011;10974;51.034;3.744;2023-04-24T04:15:49;7.50;;;4.60;;
21624;SDS011;10974;51.034;3.744;2023-04-24T04:18:15;9.67;;;5.90;;
21624;SDS011;10974;51.034;3.744;2023-04-24T04:20:41;8.77;;;5.77;;
21624;SDS011;10974;51.034;3.744;2023-04-24T04:23:07;7.93;;;5.00;;
21624;SDS011;10974;51.034;3.744;2023-04-24T04:25:33;10.00;;;4.90;;
21624;SDS011;10974;51.034;3.744;2023-04-24T04:27:59;7.00;;;5.17;;
21624;SDS011;10974;51.034;3.744;2023-04-24T04:30:27;7.67;;;5.23;;
21624;SDS011;10974;51.034;3.744;2023-04-24T04:32:54;8.20;;;5.27;;
21624;SDS011;10974;51.034;3.744;2023-04-24T04:35:21;8.13;;;5.13;;
21624;SDS011;10974;51.034;3.744;2023-04-24T04:37:47;11.20;;;5.70;;
21624;SDS011;10974;51.034;3.744;2023-04-24T04:40:13;6.30;;;4.90;;
21624;SDS011;10974;51.034;3.744;2023-04-24T04:42:39;7.60;;;4.83;;
21624;SDS011;10974;51.034;3.744;2023-04-24T04:45:09;8.33;;;5.17;;
21624;SDS011;10974;51.034;3.744;2023-04-24T04:47:36;7.20;;;4.80;;
21624;SDS011;10974;51.034;3.744;2023-04-24T04:50:02;6.90;;;4.30;;
21624;SDS011;10974;51.034;3.744;2023-04-24T04:52:29;8.47;;;5.33;;
21624;SDS011;10974;51.034;3.744;2023-04-24T04:54:55;10.10;;;4.70;;
21624;SDS011;10974;51.034;3.744;2023-04-24T04:57:21;8.33;;;5.37;;
21624;SDS011;10974;51.034;3.744;2023-04-24T04:59:47;10.70;;;5.40;;
21624;SDS011;10974;51.034;3.744;2023-04-24T05:02:13;8.97;;;5.20;;
21624;SDS011;10974;51.034;3.744;2023-04-24T05:04:40;10.20;;;5.40;;
21624;SDS011;10974;51.034;3.744;2023-04-24T05:07:06;12.63;;;6.10;;
21624;SDS011;10974;51.034;3.744;2023-04-24T05:09:32;8.00;;;4.83;;
21624;SDS011;10974;51.034;3.744;2023-04-24T05:11:58;10.20;;;5.43;;
21624;SDS011;10974;51.034;3.744;2023-04-24T05:14:24;8.93;;;5.60;;
21624;SDS011;10974;51.034;3.744;2023-04-24T05:16:50;9.23;;;5.93;;
21624;SDS011;10974;51.034;3.744;2023-04-24T05:19:16;10.50;;;5.80;;
21624;SDS011;10974;51.034;3.744;2023-04-24T05:21:42;11.00;;;5.53;;
21624;SDS011;10974;51.034;3.744;2023-04-24T05:24:08;11.30;;;5.60;;
21624;SDS011;10974;51.034;3.744;2023-04-24T05:26:34;8.80;;;5.80;;
21624;SDS011;10974;51.034;3.744;2023-04-24T05:29:01;10.23;;;6.50;;
21624;SDS011;10974;51.034;3.744;2023-04-24T05:31:27;8.77;;;5.40;;
21624;SDS011;10974;51.034;3.744;2023-04-24T05:33:53;9.20;;;6.13;;
21624;SDS011;10974;51.034;3.744;2023-04-24T05:36:19;7.10;;;5.50;;
21624;SDS011;10974;51.034;3.744;2023-04-24T05:38:45;9.73;;;6.10;;
21624;SDS011;10974;51.034;3.744;2023-04-24T05:41:11;10.10;;;6.43;;
21624;SDS011;10974;51.034;3.744;2023-04-24T05:43:37;11.17;;;6.07;;
21624;SDS011;10974;51.034;3.744;2023-04-24T05:46:03;9.20;;;6.40;;
21624;SDS011;10974;51.034;3.744;2023-04-24T05:48:29;9.53;;;6.33;;
21624;SDS011;10974;51.034;3.744;2023-04-24T05:50:55;17.33;;;6.10;;
21624;SDS011;10974;51.034;3.744;2023-04-24T05:53:22;10.40;;;5.90;;
21624;SDS011;10974;51.034;3.744;2023-04-24T05:55:49;10.23;;;7.33;;
21624;SDS011;10974;51.034;3.744;2023-04-24T05:58:15;14.50;;;6.77;;
21624;SDS011;10974;51.034;3.744;2023-04-24T06:00:41;11.00;;;7.43;;
21624;SDS011;10974;51.034;3.744;2023-04-24T06:03:08;9.97;;;6.90;;
21624;SDS011;10974;51.034;3.744;2023-04-24T06:05:34;12.47;;;7.57;;
21624;SDS011;10974;51.034;3.744;2023-04-24T06:08:00;11.97;;;8.10;;
21624;SDS011;10974;51.034;3.744;2023-04-24T06:10:26;15.37;;;8.13;;
21624;SDS011;10974;51.034;3.744;2023-04-24T06:12:52;14.93;;;8.90;;
21624;SDS011;10974;51.034;3.744;2023-04-24T06:15:21;11.77;;;7.83;;
21624;SDS011;10974;51.034;3.744;2023-04-24T06:17:47;12.20;;;7.93;;
21624;SDS011;10974;51.034;3.744;2023-04-24T06:20:13;15.13;;;8.47;;
21624;SDS011;10974;51.034;3.744;2023-04-24T06:22:39;15.97;;;10.00;;
21624;SDS011;10974;51.034;3.744;2023-04-24T06:25:06;17.90;;;9.60;;
21624;SDS011;10974;51.034;3.744;2023-04-24T06:27:32;14.07;;;10.07;;
21624;SDS011;10974;51.034;3.744;2023-04-24T06:29:58;19.20;;;8.60;;
21624;SDS011;10974;51.034;3.744;2023-04-24T06:32:24;16.97;;;8.70;;
21624;SDS011;10974;51.034;3.744;2023-04-24T06:34:52;11.70;;;7.00;;
21624;SDS011;10974;51.034;3.744;2023-04-24T06:37:18;12.47;;;6.87;;
21624;SDS011;10974;51.034;3.744;2023-04-24T06:39:45;11.27;;;6.93;;
21624;SDS011;10974;51.034;3.744;2023-04-24T06:42:11;19.03;;;8.00;;
21624;SDS011;10974;51.034;3.744;2023-04-24T06:44:37;12.87;;;6.30;;
21624;SDS011;10974;51.034;3.744;2023-04-24T06:47:06;10.70;;;5.67;;
21624;SDS011;10974;51.034;3.744;2023-04-24T06:49:34;14.77;;;7.10;;
21624;SDS011;10974;51.034;3.744;2023-04-24T06:52:00;12.80;;;6.40;;
21624;SDS011;10974;51.034;3.744;2023-04-24T06:54:26;13.23;;;7.17;;
21624;SDS011;10974;51.034;3.744;2023-04-24T06:56:52;14.80;;;7.27;;
21624;SDS011;10974;51.034;3.744;2023-04-24T06:59:18;11.27;;;6.67;;
21624;SDS011;10974;51.034;3.744;2023-04-24T07:01:44;13.27;;;7.63;;
21624;SDS011;10974;51.034;3.744;2023-04-24T07:04:10;9.50;;;6.30;;
21624;SDS011;10974;51.034;3.744;2023-04-24T07:06:38;12.50;;;7.03;;
21624;SDS011;10974;51.034;3.744;2023-04-24T07:09:04;13.67;;;6.63;;
21624;SDS011;10974;51.034;3.744;2023-04-24T07:11:30;13.70;;;6.20;;
21624;SDS011;10974;51.034;3.744;2023-04-24T07:13:57;12.57;;;6.17;;
21624;SDS011;10974;51.034;3.744;2023-04-24T07:16:23;13.50;;;6.00;;
21624;SDS011;10974;51.034;3.744;2023-04-24T07:18:50;16.80;;;6.27;;
21624;SDS011;10974;51.034;3.744;2023-04-24T07:21:16;11.63;;;5.80;;
21624;SDS011;10974;51.034;3.744;2023-04-24T07:23:42;11.37;;;5.20;;
21624;SDS011;10974;51.034;3.744;2023-04-24T07:26:09;11.47;;;5.23;;
21624;SDS011;10974;51.034;3.744;2023-04-24T07:28:35;16.60;;;5.50;;
21624;SDS011;10974;51.034;3.744;2023-04-24T07:31:01;10.87;;;5.97;;
21624;SDS011;10974;51.034;3.744;2023-04-24T07:33:27;14.23;;;5.67;;
21624;SDS011;10974;51.034;3.744;2023-04-24T07:35:53;13.60;;;5.40;;
21624;SDS011;10974;51.034;3.744;2023-04-24T07:38:19;15.63;;;5.57;;
21624;SDS011;10974;51.034;3.744;2023-04-24T07:40:47;14.20;;;5.83;;
21624;SDS011;10974;51.034;3.744;2023-04-24T07:43:13;11.60;;;5.47;;
21624;SDS011;10974;51.034;3.744;2023-04-24T07:45:39;13.47;;;5.27;;
21624;SDS011;10974;51.034;3.744;2023-04-24T07:48:06;9.00;;;5.40;;
21624;SDS011;10974;51.034;3.744;2023-04-24T07:50:34;16.03;;;5.27;;
21624;SDS011;10974;51.034;3.744;2023-04-24T07:53:01;10.60;;;4.77;;
21624;SDS011;10974;51.034;3.744;2023-04-24T07:55:27;9.67;;;4.97;;
21624;SDS011;10974;51.034;3.744;2023-04-24T07:57:53;12.97;;;5.00;;
21624;SDS011;10974;51.034;3.744;2023-04-24T08:00:19;10.03;;;4.40;;
21624;SDS011;10974;51.034;3.744;2023-04-24T08:02:45;10.90;;;4.57;;
21624;SDS011;10974;51.034;3.744;2023-04-24T08:05:11;12.37;;;4.67;;
21624;SDS011;10974;51.034;3.744;2023-04-24T08:07:38;13.63;;;3.90;;
21624;SDS011;10974;51.034;3.744;2023-04-24T08:10:04;12.77;;;4.57;;
21624;SDS011;10974;51.034;3.744;2023-04-24T08:12:30;13.50;;;4.77;;
21624;SDS011;10974;51.034;3.744;2023-04-24T08:14:56;15.47;;;5.40;;
21624;SDS011;10974;51.034;3.744;2023-04-24T08:17:23;14.97;;;4.60;;
21624;SDS011;10974;51.034;3.744;2023-04-24T08:19:50;9.80;;;3.97;;
21624;SDS011;10974;51.034;3.744;2023-04-24T08:22:18;8.37;;;3.90;;
21624;SDS011;10974;51.034;3.744;2023-04-24T08:24:44;15.23;;;4.37;;
21624;SDS011;10974;51.034;3.744;2023-04-24T08:27:10;6.43;;;3.30;;
21624;SDS011;10974;51.034;3.744;2023-04-24T08:29:36;12.70;;;4.50;;
21624;SDS011;10974;51.034;3.744;2023-04-24T08:32:02;10.60;;;4.37;;
21624;SDS011;10974;51.034;3.744;2023-04-24T08:34:28;4.70;;;3.23;;
21624;SDS011;10974;51.034;3.744;2023-04-24T08:36:54;9.53;;;4.67;;
21624;SDS011;10974;51.034;3.744;2023-04-24T08:39:21;6.00;;;3.33;;
21624;SDS011;10974;51.034;3.744;2023-04-24T08:41:47;8.67;;;3.33;;
21624;SDS011;10974;51.034;3.744;2023-04-24T08:44:14;8.10;;;3.83;;
21624;SDS011;10974;51.034;3.744;2023-04-24T08:46:42;7.43;;;3.23;;
21624;SDS011;10974;51.034;3.744;2023-04-24T08:49:11;8.90;;;3.30;;
21624;SDS011;10974;51.034;3.744;2023-04-24T08:51:37;9.00;;;3.43;;
21624;SDS011;10974;51.034;3.744;2023-04-24T08:54:05;13.87;;;5.50;;
21624;SDS011;10974;51.034;3.744;2023-04-24T08:56:32;10.63;;;5.10;;
21624;SDS011;10974;51.034;3.744;2023-04-24T08:58:59;10.43;;;4.80;;
21624;SDS011;10974;51.034;3.744;2023-04-24T09:01:25;9.33;;;6.00;;
21624;SDS011;10974;51.034;3.744;2023-04-24T09:03:52;10.10;;;4.80;;
21624;SDS011;10974;51.034;3.744;2023-04-24T09:06:19;8.20;;;4.57;;
21624;SDS011;10974;51.034;3.744;2023-04-24T09:08:45;5.43;;;3.47;;
21624;SDS011;10974;51.034;3.744;2023-04-24T09:11:11;13.57;;;5.03;;
21624;SDS011;10974;51.034;3.744;2023-04-24T09:13:37;7.47;;;3.60;;
21624;SDS011;10974;51.034;3.744;2023-04-24T09:16:04;6.17;;;3.77;;
21624;SDS011;10974;51.034;3.744;2023-04-24T09:18:30;9.87;;;4.40;;
21624;SDS011;10974;51.034;3.744;2023-04-24T09:21:00;8.47;;;4.07;;
21624;SDS011;10974;51.034;3.744;2023-04-24T09:23:29;8.23;;;3.93;;
21624;SDS011;10974;51.034;3.744;2023-04-24T09:25:56;13.53;;;4.40;;
21624;SDS011;10974;51.034;3.744;2023-04-24T09:28:25;7.27;;;3.47;;
21624;SDS011;10974;51.034;3.744;2023-04-24T09:31:13;7.33;;;4.00;;
21624;SDS011;10974;51.034;3.744;2023-04-24T09:33:39;9.30;;;3.60;;
21624;SDS011;10974;51.034;3.744;2023-04-24T09:36:05;8.60;;;3.90;;
21624;SDS011;10974;51.034;3.744;2023-04-24T09:41:07;6.47;;;3.63;;
21624;SDS011;10974;51.034;3.744;2023-04-24T09:43:34;8.80;;;3.33;;
21624;SDS011;10974;51.034;3.744;2023-04-24T09:46:04;11.23;;;3.73;;
21624;SDS011;10974;51.034;3.744;2023-04-24T09:48:34;7.80;;;3.30;;
21624;SDS011;10974;51.034;3.744;2023-04-24T09:51:01;6.00;;;3.40;;
21624;SDS011;10974;51.034;3.744;2023-04-24T09:53:29;6.23;;;3.60;;
21624;SDS011;10974;51.034;3.744;2023-04-24T09:55:55;8.20;;;3.40;;
21624;SDS011;10974;51.034;3.744;2023-04-24T09:58:25;7.63;;;3.47;;
21624;SDS011;10974;51.034;3.744;2023-04-24T10:00:54;6.43;;;3.57;;
21624;SDS011;10974;51.034;3.744;2023-04-24T10:03:23;8.07;;;5.13;;
21624;SDS011;10974;51.034;3.744;2023-04-24T10:05:51;4.70;;;3.07;;
21624;SDS011;10974;51.034;3.744;2023-04-24T10:08:17;4.83;;;3.30;;
21624;SDS011;10974;51.034;3.744;2023-04-24T10:10:44;10.13;;;4.53;;
21624;SDS011;10974;51.034;3.744;2023-04-24T10:13:12;8.17;;;3.77;;
21624;SDS011;10974;51.034;3.744;2023-04-24T10:15:40;5.77;;;3.37;;
21624;SDS011;10974;51.034;3.744;2023-04-24T10:18:06;7.50;;;3.37;;
21624;SDS011;10974;51.034;3.744;2023-04-24T10:20:34;5.30;;;3.23;;
21624;SDS011;10974;51.034;3.744;2023-04-24T10:23:00;7.20;;;3.80;;
21624;SDS011;10974;51.034;3.744;2023-04-24T10:25:27;4.97;;;2.93;;
21624;SDS011;10974;51.034;3.744;2023-04-24T10:27:53;7.47;;;3.07;;
21624;SDS011;10974;51.034;3.744;2023-04-24T10:30:24;9.47;;;3.87;;
21624;SDS011;10974;51.034;3.744;2023-04-24T10:32:51;5.33;;;3.33;;
21624;SDS011;10974;51.034;3.744;2023-04-24T10:35:17;9.53;;;4.07;;
21624;SDS011;10974;51.034;3.744;2023-04-24T10:38:08;9.90;;;4.23;;
21624;SDS011;10974;51.034;3.744;2023-04-24T10:40:35;4.73;;;3.27;;
21624;SDS011;10974;51.034;3.744;2023-04-24T10:43:05;5.67;;;2.90;;
21624;SDS011;10974;51.034;3.744;2023-04-24T10:45:33;9.00;;;4.00;;
21624;SDS011;10974;51.034;3.744;2023-04-24T10:48:04;4.27;;;2.73;;
21624;SDS011;10974;51.034;3.744;2023-04-24T10:53:18;11.23;;;5.07;;
21624;SDS011;10974;51.034;3.744;2023-04-24T10:55:46;7.50;;;3.63;;
21624;SDS011;10974;51.034;3.744;2023-04-24T10:58:12;5.63;;;3.00;;
21624;SDS011;10974;51.034;3.744;2023-04-24T11:00:40;3.93;;;2.90;;
21624;SDS011;10974;51.034;3.744;2023-04-24T11:03:09;5.93;;;3.37;;
21624;SDS011;10974;51.034;3.744;2023-04-24T11:05:49;7.70;;;3.70;;
21624;SDS011;10974;51.034;3.744;2023-04-24T11:08:21;6.00;;;3.77;;
21624;SDS011;10974;51.034;3.744;2023-04-24T11:10:53;5.90;;;3.67;;
21624;SDS011;10974;51.034;3.744;2023-04-24T11:13:23;6.27;;;3.77;;
21624;SDS011;10974;51.034;3.744;2023-04-24T11:18:38;10.53;;;4.50;;
21624;SDS011;10974;51.034;3.744;2023-04-24T11:21:13;7.00;;;3.03;;
21624;SDS011;10974;51.034;3.744;2023-04-24T11:23:42;6.20;;;3.30;;
21624;SDS011;10974;51.034;3.744;2023-04-24T11:26:11;6.30;;;3.00;;
21624;SDS011;10974;51.034;3.744;2023-04-24T11:28:43;3.57;;;2.33;;
21624;SDS011;10974;51.034;3.744;2023-04-24T11:33:55;7.30;;;3.70;;
21624;SDS011;10974;51.034;3.744;2023-04-24T11:36:21;5.10;;;2.93;;
21624;SDS011;10974;51.034;3.744;2023-04-24T11:38:47;4.27;;;2.53;;
21624;SDS011;10974;51.034;3.744;2023-04-24T11:41:13;3.27;;;2.63;;
21624;SDS011;10974;51.034;3.744;2023-04-24T11:43:39;10.67;;;3.10;;
21624;SDS011;10974;51.034;3.744;2023-04-24T11:46:05;6.30;;;2.97;;
21624;SDS011;10974;51.034;3.744;2023-04-24T11:48:34;6.23;;;2.70;;
21624;SDS011;10974;51.034;3.744;2023-04-24T11:51:05;4.87;;;2.10;;
21624;SDS011;10974;51.034;3.744;2023-04-24T11:53:32;5.43;;;2.90;;
21624;SDS011;10974;51.034;3.744;2023-04-24T11:56:02;5.33;;;2.70;;
21624;SDS011;10974;51.034;3.744;2023-04-24T11:58:28;6.23;;;2.60;;
21624;SDS011;10974;51.034;3.744;2023-04-24T12:00:57;6.10;;;2.77;;
21624;SDS011;10974;51.034;3.744;2023-04-24T12:03:24;4.30;;;2.17;;
21624;SDS011;10974;51.034;3.744;2023-04-24T12:05:50;6.53;;;2.90;;
21624;SDS011;10974;51.034;3.744;2023-04-24T12:08:28;7.53;;;3.10;;
21624;SDS011;10974;51.034;3.744;2023-04-24T12:10:55;3.13;;;2.53;;
21624;SDS011;10974;51.034;3.744;2023-04-24T12:13:21;6.37;;;2.80;;
21624;SDS011;10974;51.034;3.744;2023-04-24T12:15:47;8.90;;;2.87;;
21624;SDS011;10974;51.034;3.744;2023-04-24T12:18:13;3.00;;;2.10;;
21624;SDS011;10974;51.034;3.744;2023-04-24T12:20:42;8.40;;;2.50;;
21624;SDS011;10974;51.034;3.744;2023-04-24T12:23:08;4.80;;;2.37;;
21624;SDS011;10974;51.034;3.744;2023-04-24T12:25:34;3.80;;;1.90;;
21624;SDS011;10974;51.034;3.744;2023-04-24T12:30:50;5.53;;;2.37;;
21624;SDS011;10974;51.034;3.744;2023-04-24T12:33:19;2.57;;;2.00;;
21624;SDS011;10974;51.034;3.744;2023-04-24T12:35:47;3.43;;;1.80;;
21624;SDS011;10974;51.034;3.744;2023-04-24T12:38:13;4.30;;;1.80;;
21624;SDS011;10974;51.034;3.744;2023-04-24T12:40:42;3.87;;;2.07;;
21624;SDS011;10974;51.034;3.744;2023-04-24T12:43:15;4.80;;;2.00;;
21624;SDS011;10974;51.034;3.744;2023-04-24T12:45:41;3.83;;;1.90;;
21624;SDS011;10974;51.034;3.744;2023-04-24T12:48:07;5.30;;;1.87;;
21624;SDS011;10974;51.034;3.744;2023-04-24T12:50:33;2.87;;;1.80;;
21624;SDS011;10974;51.034;3.744;2023-04-24T12:52:59;2.37;;;1.80;;
21624;SDS011;10974;51.034;3.744;2023-04-24T12:55:25;5.10;;;2.10;;
21624;SDS011;10974;51.034;3.744;2023-04-24T12:57:51;6.63;;;2.00;;
21624;SDS011;10974;51.034;3.744;2023-04-24T13:00:20;2.30;;;1.57;;
21624;SDS011;10974;51.034;3.744;2023-04-24T13:02:46;2.50;;;1.53;;
21624;SDS011;10974;51.034;3.744;2023-04-24T13:05:12;2.80;;;1.63;;
21624;SDS011;10974;51.034;3.744;2023-04-24T13:07:39;4.37;;;2.30;;
21624;SDS011;10974;51.034;3.744;2023-04-24T13:10:05;3.77;;;1.60;;
21624;SDS011;10974;51.034;3.744;2023-04-24T13:12:31;2.53;;;1.60;;
21624;SDS011;10974;51.034;3.744;2023-04-24T13:14:58;3.00;;;1.63;;
21624;SDS011;10974;51.034;3.744;2023-04-24T13:17:24;1.97;;;1.23;;
21624;SDS011;10974;51.034;3.744;2023-04-24T13:19:50;3.97;;;2.20;;
21624;SDS011;10974;51.034;3.744;2023-04-24T13:22:17;3.17;;;2.20;;
21624;SDS011;10974;51.034;3.744;2023-04-24T13:24:43;2.50;;;1.80;;
21624;SDS011;10974;51.034;3.744;2023-04-24T13:27:10;3.00;;;2.37;;
21624;SDS011;10974;51.034;3.744;2023-04-24T13:29:36;7.43;;;2.30;;
21624;SDS011;10974;51.034;3.744;2023-04-24T13:32:02;2.60;;;1.50;;
21624;SDS011;10974;51.034;3.744;2023-04-24T13:34:28;3.63;;;1.70;;
21624;SDS011;10974;51.034;3.744;2023-04-24T13:36:55;5.77;;;1.60;;
21624;SDS011;10974;51.034;3.744;2023-04-24T13:39:27;2.10;;;1.40;;
21624;SDS011;10974;51.034;3.744;2023-04-24T13:41:53;3.33;;;1.60;;
21624;SDS011;10974;51.034;3.744;2023-04-24T13:44:20;5.37;;;1.50;;
21624;SDS011;10974;51.034;3.744;2023-04-24T13:46:47;3.60;;;1.47;;
21624;SDS011;10974;51.034;3.744;2023-04-24T13:49:13;4.63;;;1.50;;
21624;SDS011;10974;51.034;3.744;2023-04-24T13:51:40;2.23;;;1.40;;
21624;SDS011;10974;51.034;3.744;2023-04-24T13:54:06;3.17;;;1.80;;
21624;SDS011;10974;51.034;3.744;2023-04-24T13:56:33;3.30;;;1.70;;
21624;SDS011;10974;51.034;3.744;2023-04-24T13:58:59;2.50;;;1.50;;
21624;SDS011;10974;51.034;3.744;2023-04-24T14:01:25;2.90;;;1.60;;
21624;SDS011;10974;51.034;3.744;2023-04-24T14:03:52;3.40;;;1.47;;
21624;SDS011;10974;51.034;3.744;2023-04-24T14:06:18;2.67;;;1.40;;
21624;SDS011;10974;51.034;3.744;2023-04-24T14:08:44;1.70;;;1.40;;
21624;SDS011;10974;51.034;3.744;2023-04-24T14:11:10;4.00;;;1.63;;
21624;SDS011;10974;51.034;3.744;2023-04-24T14:13:36;2.10;;;1.40;;
21624;SDS011;10974;51.034;3.744;2023-04-24T14:16:03;1.50;;;1.23;;
21624;SDS011;10974;51.034;3.744;2023-04-24T14:18:29;3.33;;;1.47;;
21624;SDS011;10974;51.034;3.744;2023-04-24T14:20:55;1.40;;;1.20;;
21624;SDS011;10974;51.034;3.744;2023-04-24T14:23:21;4.93;;;1.90;;
21624;SDS011;10974;51.034;3.744;2023-04-24T14:25:47;4.63;;;1.40;;
21624;SDS011;10974;51.034;3.744;2023-04-24T14:28:20;2.20;;;1.23;;
21624;SDS011;10974;51.034;3.744;2023-04-24T14:30:46;1.30;;;1.10;;
21624;SDS011;10974;51.034;3.744;2023-04-24T14:33:13;2.50;;;1.43;;
21624;SDS011;10974;51.034;3.744;2023-04-24T14:35:42;2.27;;;1.10;;
21624;SDS011;10974;51.034;3.744;2023-04-24T14:38:08;2.60;;;1.30;;
21624;SDS011;10974;51.034;3.744;2023-04-24T14:40:35;2.30;;;1.40;;
21624;SDS011;10974;51.034;3.744;2023-04-24T14:43:01;2.27;;;1.23;;
21624;SDS011;10974;51.034;3.744;2023-04-24T14:45:27;3.57;;;1.60;;
21624;SDS011;10974;51.034;3.744;2023-04-24T14:47:54;1.93;;;1.07;;
21624;SDS011;10974;51.034;3.744;2023-04-24T14:50:21;2.83;;;1.47;;
21624;SDS011;10974;51.034;3.744;2023-04-24T14:52:47;4.10;;;1.63;;
21624;SDS011;10974;51.034;3.744;2023-04-24T14:55:13;2.10;;;1.47;;
21624;SDS011;10974;51.034;3.744;2023-04-24T14:57:39;4.80;;;1.40;;
21624;SDS011;10974;51.034;3.744;2023-04-24T15:00:06;2.50;;;1.40;;
21624;SDS011;10974;51.034;3.744;2023-04-24T15:02:33;1.63;;;1.40;;
21624;SDS011;10974;51.034;3.744;2023-04-24T15:05:02;2.10;;;1.53;;
21624;SDS011;10974;51.034;3.744;2023-04-24T15:07:29;3.97;;;2.27;;
21624;SDS011;10974;51.034;3.744;2023-04-24T15:09:56;8.10;;;1.80;;
21624;SDS011;10974;51.034;3.744;2023-04-24T15:12:22;4.13;;;2.03;;
21624;SDS011;10974;51.034;3.744;2023-04-24T15:14:48;4.03;;;1.93;;
21624;SDS011;10974;51.034;3.744;2023-04-24T15:17:14;4.03;;;1.60;;
21624;SDS011;10974;51.034;3.744;2023-04-24T15:19:40;2.50;;;1.57;;
21624;SDS011;10974;51.034;3.744;2023-04-24T15:22:06;2.10;;;1.60;;
21624;SDS011;10974;51.034;3.744;2023-04-24T15:24:32;4.87;;;1.77;;
21624;SDS011;10974;51.034;3.744;2023-04-24T15:26:59;5.33;;;2.13;;
21624;SDS011;10974;51.034;3.744;2023-04-24T15:29:26;101.07;;;3.87;;
21624;SDS011;10974;51.034;3.744;2023-04-24T15:31:52;2.50;;;1.57;;
21624;SDS011;10974;51.034;3.744;2023-04-24T15:34:18;4.43;;;1.93;;
21624;SDS011;10974;51.034;3.744;2023-04-24T15:36:45;3.27;;;1.67;;
21624;SDS011;10974;51.034;3.744;2023-04-24T15:39:11;3.20;;;1.83;;
21624;SDS011;10974;51.034;3.744;2023-04-24T15:41:37;3.17;;;1.70;;
21624;SDS011;10974;51.034;3.744;2023-04-24T15:44:03;3.60;;;1.87;;
21624;SDS011;10974;51.034;3.744;2023-04-24T15:46:29;2.60;;;1.73;;
21624;SDS011;10974;51.034;3.744;2023-04-24T15:48:55;2.93;;;1.40;;
21624;SDS011;10974;51.034;3.744;2023-04-24T15:51:21;2.97;;;1.70;;
21624;SDS011;10974;51.034;3.744;2023-04-24T15:53:47;2.70;;;1.80;;
21624;SDS011;10974;51.034;3.744;2023-04-24T15:56:13;4.20;;;1.80;;
21624;SDS011;10974;51.034;3.744;2023-04-24T15:58:39;2.33;;;1.47;;
21624;SDS011;10974;51.034;3.744;2023-04-24T16:01:05;3.00;;;1.70;;
21624;SDS011;10974;51.034;3.744;2023-04-24T16:03:32;3.07;;;1.73;;
21624;SDS011;10974;51.034;3.744;2023-04-24T16:05:58;3.40;;;1.77;;
21624;SDS011;10974;51.034;3.744;2023-04-24T16:08:24;3.90;;;2.40;;
21624;SDS011;10974;51.034;3.744;2023-04-24T16:10:50;5.27;;;2.20;;
21624;SDS011;10974;51.034;3.744;2023-04-24T16:13:16;3.60;;;2.40;;
21624;SDS011;10974;51.034;3.744;2023-04-24T16:15:42;6.40;;;2.20;;
21624;SDS011;10974;51.034;3.744;2023-04-24T16:18:09;3.60;;;1.70;;
21624;SDS011;10974;51.034;3.744;2023-04-24T16:20:35;4.93;;;2.37;;
21624;SDS011;10974;51.034;3.744;2023-04-24T16:23:01;4.50;;;2.07;;
21624;SDS011;10974;51.034;3.744;2023-04-24T16:25:27;8.77;;;2.67;;
21624;SDS011;10974;51.034;3.744;2023-04-24T16:27:53;6.60;;;2.37;;
21624;SDS011;10974;51.034;3.744;2023-04-24T16:30:20;6.20;;;2.10;;
21624;SDS011;10974;51.034;3.744;2023-04-24T16:32:47;6.40;;;2.17;;
21624;SDS011;10974;51.034;3.744;2023-04-24T16:35:13;8.20;;;2.13;;
21624;SDS011;10974;51.034;3.744;2023-04-24T16:37:40;13.70;;;2.03;;
21624;SDS011;10974;51.034;3.744;2023-04-24T16:40:06;10.37;;;2.63;;
21624;SDS011;10974;51.034;3.744;2023-04-24T16:42:35;5.40;;;2.20;;
21624;SDS011;10974;51.034;3.744;2023-04-24T16:45:02;4.57;;;2.13;;
21624;SDS011;10974;51.034;3.744;2023-04-24T16:47:28;4.30;;;2.20;;
21624;SDS011;10974;51.034;3.744;2023-04-24T16:49:54;4.50;;;1.97;;
21624;SDS011;10974;51.034;3.744;2023-04-24T16:52:20;3.17;;;2.10;;
21624;SDS011;10974;51.034;3.744;2023-04-24T16:54:46;5.80;;;2.20;;
21624;SDS011;10974;51.034;3.744;2023-04-24T16:57:12;10.00;;;2.37;;
21624;SDS011;10974;51.034;3.744;2023-04-24T16:59:38;4.60;;;2.20;;
21624;SDS011;10974;51.034;3.744;2023-04-24T17:02:04;3.17;;;1.90;;
21624;SDS011;10974;51.034;3.744;2023-04-24T17:04:30;3.20;;;2.03;;
21624;SDS011;10974;51.034;3.744;2023-04-24T17:06:59;5.10;;;2.13;;
21624;SDS011;10974;51.034;3.744;2023-04-24T17:09:25;4.40;;;2.40;;
21624;SDS011;10974;51.034;3.744;2023-04-24T17:11:52;3.97;;;2.33;;
21624;SDS011;10974;51.034;3.744;2023-04-24T17:14:18;6.07;;;4.57;;
21624;SDS011;10974;51.034;3.744;2023-04-24T17:16:44;7.53;;;2.90;;
21624;SDS011;10974;51.034;3.744;2023-04-24T17:19:10;6.43;;;4.03;;
21624;SDS011;10974;51.034;3.744;2023-04-24T17:21:36;9.23;;;4.90;;
21624;SDS011;10974;51.034;3.744;2023-04-24T17:24:02;11.17;;;4.43;;
21624;SDS011;10974;51.034;3.744;2023-04-24T17:26:28;8.47;;;4.37;;
21624;SDS011;10974;51.034;3.744;2023-04-24T17:28:56;5.60;;;2.77;;
21624;SDS011;10974;51.034;3.744;2023-04-24T17:31:22;5.97;;;2.50;;
21624;SDS011;10974;51.034;3.744;2023-04-24T17:33:48;8.10;;;3.27;;
21624;SDS011;10974;51.034;3.744;2023-04-24T17:36:14;7.80;;;2.80;;
21624;SDS011;10974;51.034;3.744;2023-04-24T17:38:40;7.60;;;2.60;;
21624;SDS011;10974;51.034;3.744;2023-04-24T17:41:06;7.27;;;2.67;;
21624;SDS011;10974;51.034;3.744;2023-04-24T17:43:32;6.20;;;2.80;;
21624;SDS011;10974;51.034;3.744;2023-04-24T17:45:59;10.27;;;2.70;;
21624;SDS011;10974;51.034;3.744;2023-04-24T17:48:25;3.57;;;2.93;;
21624;SDS011;10974;51.034;3.744;2023-04-24T17:50:51;4.83;;;2.37;;
21624;SDS011;10974;51.034;3.744;2023-04-24T17:53:17;4.63;;;2.83;;
21624;SDS011;10974;51.034;3.744;2023-04-24T17:55:43;6.33;;;3.37;;
21624;SDS011;10974;51.034;3.744;2023-04-24T17:58:13;6.33;;;2.90;;
21624;SDS011;10974;51.034;3.744;2023-04-24T18:00:39;5.20;;;2.37;;
21624;SDS011;10974;51.034;3.744;2023-04-24T18:03:06;6.23;;;3.00;;
21624;SDS011;10974;51.034;3.744;2023-04-24T18:05:33;13.17;;;2.60;;
21624;SDS011;10974;51.034;3.744;2023-04-24T18:08:00;3.50;;;2.43;;
21624;SDS011;10974;51.034;3.744;2023-04-24T18:10:27;5.20;;;2.20;;
21624;SDS011;10974;51.034;3.744;2023-04-24T18:12:53;7.40;;;2.50;;
21624;SDS011;10974;51.034;3.744;2023-04-24T18:15:20;7.37;;;2.60;;
21624;SDS011;10974;51.034;3.744;2023-04-24T18:17:46;6.07;;;2.73;;
21624;SDS011;10974;51.034;3.744;2023-04-24T18:20:13;5.40;;;2.83;;
21624;SDS011;10974;51.034;3.744;2023-04-24T18:22:40;6.83;;;2.77;;
21624;SDS011;10974;51.034;3.744;2023-04-24T18:25:06;6.30;;;3.27;;
21624;SDS011;10974;51.034;3.744;2023-04-24T18:27:33;7.17;;;3.00;;
21624;SDS011;10974;51.034;3.744;2023-04-24T18:30:00;5.63;;;2.83;;
21624;SDS011;10974;51.034;3.744;2023-04-24T18:32:27;5.00;;;2.83;;